Terminal Aerodrome Forecast
Issued by NWS

Home | Current Version | Previous Version | Text Only | Print | Product List | Glossary Off
Versions: 1 2 3 4 5 6 7 8 9 10 11 12 13 14 15

000
FTUS43 KMPX 291142
TAFRWF
TAF
KRWF 291142Z 2912/3012 21017G24KT P6SM OVC040
     FM291500 29021G33KT 6SM -RA BKN030 OVC040
     FM291800 32028G39KT P6SM BKN040
     FM300100 31012KT P6SM SKC
     FM300700 25005KT P6SM SKC=

USA.gov is the U.S. government's official web portal to all federal, state and local government web resources and services.